sensor_id;sensor_type;location;lat;lon;timestamp;temperature;humidity
35559;DHT22;21661;50.794;-1.066;2023-02-28T00:00:18;6.10;99.90
35559;DHT22;21661;50.794;-1.066;2023-02-28T00:02:45;6.00;99.90
35559;DHT22;21661;50.794;-1.066;2023-02-28T00:05:13;6.10;99.90
35559;DHT22;21661;50.794;-1.066;2023-02-28T00:07:39;6.10;99.90
35559;DHT22;21661;50.794;-1.066;2023-02-28T00:10:06;6.10;99.90
35559;DHT22;21661;50.794;-1.066;2023-02-28T00:12:34;6.10;99.90
35559;DHT22;21661;50.794;-1.066;2023-02-28T00:15:00;6.10;99.90
35559;DHT22;21661;50.794;-1.066;2023-02-28T00:17:25;6.20;99.90
35559;DHT22;21661;50.794;-1.066;2023-02-28T00:19:51;6.20;99.90
35559;DHT22;21661;50.794;-1.066;2023-02-28T00:22:18;6.20;99.90
35559;DHT22;21661;50.794;-1.066;2023-02-28T00:24:44;6.20;99.90
35559;DHT22;21661;50.794;-1.066;2023-02-28T00:27:11;6.20;99.90
35559;DHT22;21661;50.794;-1.066;2023-02-28T00:29:37;6.10;99.90
35559;DHT22;21661;50.794;-1.066;2023-02-28T00:32:03;6.20;99.90
35559;DHT22;21661;50.794;-1.066;2023-02-28T00:34:29;6.20;99.90
35559;DHT22;21661;50.794;-1.066;2023-02-28T00:36:55;6.10;99.90
35559;DHT22;21661;50.794;-1.066;2023-02-28T00:39:20;6.10;99.90
35559;DHT22;21661;50.794;-1.066;2023-02-28T00:41:46;6.00;99.90
35559;DHT22;21661;50.794;-1.066;2023-02-28T00:44:12;6.00;99.90
35559;DHT22;21661;50.794;-1.066;2023-02-28T00:46:37;5.90;99.90
35559;DHT22;21661;50.794;-1.066;2023-02-28T00:49:03;5.90;99.90
35559;DHT22;21661;50.794;-1.066;2023-02-28T00:51:28;5.90;99.90
35559;DHT22;21661;50.794;-1.066;2023-02-28T00:53:54;5.80;99.90
35559;DHT22;21661;50.794;-1.066;2023-02-28T00:56:20;5.80;99.90
35559;DHT22;21661;50.794;-1.066;2023-02-28T00:58:45;5.70;99.90
35559;DHT22;21661;50.794;-1.066;2023-02-28T01:01:11;5.70;99.90
35559;DHT22;21661;50.794;-1.066;2023-02-28T01:03:36;5.70;99.90
35559;DHT22;21661;50.794;-1.066;2023-02-28T01:06:02;5.70;99.90
35559;DHT22;21661;50.794;-1.066;2023-02-28T01:08:28;5.70;99.90
35559;DHT22;21661;50.794;-1.066;2023-02-28T01:10:53;5.70;99.90
35559;DHT22;21661;50.794;-1.066;2023-02-28T01:13:20;5.60;99.90
35559;DHT22;21661;50.794;-1.066;2023-02-28T01:15:50;5.50;99.90
35559;DHT22;21661;50.794;-1.066;2023-02-28T01:18:16;5.60;99.90
35559;DHT22;21661;50.794;-1.066;2023-02-28T01:20:42;5.50;99.90
35559;DHT22;21661;50.794;-1.066;2023-02-28T01:23:08;5.40;99.90
35559;DHT22;21661;50.794;-1.066;2023-02-28T01:25:35;5.40;99.90
35559;DHT22;21661;50.794;-1.066;2023-02-28T01:28:01;5.40;99.90
35559;DHT22;21661;50.794;-1.066;2023-02-28T01:30:27;5.40;99.90
35559;DHT22;21661;50.794;-1.066;2023-02-28T01:32:52;5.40;99.90
35559;DHT22;21661;50.794;-1.066;2023-02-28T01:35:19;5.40;99.90
35559;DHT22;21661;50.794;-1.066;2023-02-28T01:37:45;5.30;99.90
35559;DHT22;21661;50.794;-1.066;2023-02-28T01:40:11;5.20;99.90
35559;DHT22;21661;50.794;-1.066;2023-02-28T01:42:37;5.20;99.90
35559;DHT22;21661;50.794;-1.066;2023-02-28T01:45:22;5.10;99.90
35559;DHT22;21661;50.794;-1.066;2023-02-28T01:47:52;5.10;99.90
35559;DHT22;21661;50.794;-1.066;2023-02-28T01:50:23;5.10;99.90
35559;DHT22;21661;50.794;-1.066;2023-02-28T01:52:50;5.00;99.90
35559;DHT22;21661;50.794;-1.066;2023-02-28T01:55:19;5.00;99.90
35559;DHT22;21661;50.794;-1.066;2023-02-28T01:57:50;5.00;99.90
35559;DHT22;21661;50.794;-1.066;2023-02-28T02:00:21;5.00;99.90
35559;DHT22;21661;50.794;-1.066;2023-02-28T02:02:50;5.00;99.90
35559;DHT22;21661;50.794;-1.066;2023-02-28T02:05:21;4.90;99.90
35559;DHT22;21661;50.794;-1.066;2023-02-28T02:07:50;4.90;99.90
35559;DHT22;21661;50.794;-1.066;2023-02-28T02:10:24;4.90;99.90
35559;DHT22;21661;50.794;-1.066;2023-02-28T02:15:36;4.80;99.90
35559;DHT22;21661;50.794;-1.066;2023-02-28T02:25:56;4.80;99.90
35559;DHT22;21661;50.794;-1.066;2023-02-28T02:28:57;4.70;99.90
35559;DHT22;21661;50.794;-1.066;2023-02-28T02:31:58;4.70;99.90
35559;DHT22;21661;50.794;-1.066;2023-02-28T02:39:53;4.60;99.90
35559;DHT22;21661;50.794;-1.066;2023-02-28T02:42:36;4.60;99.90
35559;DHT22;21661;50.794;-1.066;2023-02-28T02:45:38;4.60;99.90
35559;DHT22;21661;50.794;-1.066;2023-02-28T02:48:08;4.60;99.90
35559;DHT22;21661;50.794;-1.066;2023-02-28T02:50:41;4.60;99.90
35559;DHT22;21661;50.794;-1.066;2023-02-28T02:53:09;4.60;99.90
35559;DHT22;21661;50.794;-1.066;2023-02-28T02:55:39;4.50;99.90
35559;DHT22;21661;50.794;-1.066;2023-02-28T02:58:10;4.50;99.90
35559;DHT22;21661;50.794;-1.066;2023-02-28T03:00:41;4.50;99.90
35559;DHT22;21661;50.794;-1.066;2023-02-28T03:03:09;4.50;99.90
35559;DHT22;21661;50.794;-1.066;2023-02-28T03:05:42;4.50;99.90
35559;DHT22;21661;50.794;-1.066;2023-02-28T03:08:09;4.50;99.90
35559;DHT22;21661;50.794;-1.066;2023-02-28T03:10:43;4.50;99.90
35559;DHT22;21661;50.794;-1.066;2023-02-28T03:18:28;4.40;99.90
35559;DHT22;21661;50.794;-1.066;2023-02-28T03:21:14;4.40;99.90
35559;DHT22;21661;50.794;-1.066;2023-02-28T03:24:01;4.40;99.90
35559;DHT22;21661;50.794;-1.066;2023-02-28T03:26:29;4.40;99.90
35559;DHT22;21661;50.794;-1.066;2023-02-28T03:29:09;4.30;99.90
35559;DHT22;21661;50.794;-1.066;2023-02-28T03:31:43;4.40;99.90
35559;DHT22;21661;50.794;-1.066;2023-02-28T03:34:11;4.40;99.90
35559;DHT22;21661;50.794;-1.066;2023-02-28T03:36:39;4.40;99.90
35559;DHT22;21661;50.794;-1.066;2023-02-28T03:39:34;4.40;99.90
35559;DHT22;21661;50.794;-1.066;2023-02-28T03:42:07;4.30;99.90
35559;DHT22;21661;50.794;-1.066;2023-02-28T03:44:57;4.30;99.90
35559;DHT22;21661;50.794;-1.066;2023-02-28T03:47:37;4.30;99.90
35559;DHT22;21661;50.794;-1.066;2023-02-28T03:50:22;4.30;99.90
35559;DHT22;21661;50.794;-1.066;2023-02-28T03:53:03;4.30;99.90
35559;DHT22;21661;50.794;-1.066;2023-02-28T03:55:33;4.30;99.90
35559;DHT22;21661;50.794;-1.066;2023-02-28T04:00:37;4.40;99.90
35559;DHT22;21661;50.794;-1.066;2023-02-28T04:03:04;4.40;99.90
35559;DHT22;21661;50.794;-1.066;2023-02-28T04:05:30;4.40;99.90
35559;DHT22;21661;50.794;-1.066;2023-02-28T04:08:07;4.40;99.90
35559;DHT22;21661;50.794;-1.066;2023-02-28T04:10:33;4.30;99.90
35559;DHT22;21661;50.794;-1.066;2023-02-28T04:12:58;4.40;99.90
35559;DHT22;21661;50.794;-1.066;2023-02-28T04:15:24;4.40;99.90
35559;DHT22;21661;50.794;-1.066;2023-02-28T04:17:50;4.40;99.90
35559;DHT22;21661;50.794;-1.066;2023-02-28T04:20:16;4.40;99.90
35559;DHT22;21661;50.794;-1.066;2023-02-28T04:22:42;4.40;99.90
35559;DHT22;21661;50.794;-1.066;2023-02-28T04:25:07;4.30;99.90
35559;DHT22;21661;50.794;-1.066;2023-02-28T04:27:33;4.30;99.90
35559;DHT22;21661;50.794;-1.066;2023-02-28T04:29:59;4.20;99.90
35559;DHT22;21661;50.794;-1.066;2023-02-28T04:32:24;4.20;99.90
35559;DHT22;21661;50.794;-1.066;2023-02-28T04:34:50;4.20;99.90
35559;DHT22;21661;50.794;-1.066;2023-02-28T04:37:16;4.20;99.90
35559;DHT22;21661;50.794;-1.066;2023-02-28T04:39:42;4.20;99.90
35559;DHT22;21661;50.794;-1.066;2023-02-28T04:42:07;4.10;99.90
35559;DHT22;21661;50.794;-1.066;2023-02-28T04:44:33;4.10;99.90
35559;DHT22;21661;50.794;-1.066;2023-02-28T04:46:59;4.10;99.90
35559;DHT22;21661;50.794;-1.066;2023-02-28T04:49:25;4.10;99.90
35559;DHT22;21661;50.794;-1.066;2023-02-28T04:51:50;4.00;99.90
35559;DHT22;21661;50.794;-1.066;2023-02-28T04:54:16;4.00;99.90
35559;DHT22;21661;50.794;-1.066;2023-02-28T04:56:43;4.00;99.90
35559;DHT22;21661;50.794;-1.066;2023-02-28T04:59:08;4.00;99.90
35559;DHT22;21661;50.794;-1.066;2023-02-28T05:01:34;4.00;99.90
35559;DHT22;21661;50.794;-1.066;2023-02-28T05:04:03;4.00;99.90
35559;DHT22;21661;50.794;-1.066;2023-02-28T05:06:31;4.00;99.90
35559;DHT22;21661;50.794;-1.066;2023-02-28T05:08:57;4.10;99.90
35559;DHT22;21661;50.794;-1.066;2023-02-28T05:11:31;4.10;99.90
35559;DHT22;21661;50.794;-1.066;2023-02-28T05:14:01;4.10;99.90
35559;DHT22;21661;50.794;-1.066;2023-02-28T05:16:27;4.20;99.90
35559;DHT22;21661;50.794;-1.066;2023-02-28T05:18:52;4.20;99.90
35559;DHT22;21661;50.794;-1.066;2023-02-28T05:21:32;4.20;99.90
35559;DHT22;21661;50.794;-1.066;2023-02-28T05:24:02;4.10;99.90
35559;DHT22;21661;50.794;-1.066;2023-02-28T05:26:28;4.10;99.90
35559;DHT22;21661;50.794;-1.066;2023-02-28T05:28:54;4.10;99.90
35559;DHT22;21661;50.794;-1.066;2023-02-28T05:31:20;4.10;99.90
35559;DHT22;21661;50.794;-1.066;2023-02-28T05:33:46;4.10;99.90
35559;DHT22;21661;50.794;-1.066;2023-02-28T05:36:12;4.10;99.90
35559;DHT22;21661;50.794;-1.066;2023-02-28T05:38:38;4.00;99.90
35559;DHT22;21661;50.794;-1.066;2023-02-28T05:41:11;4.00;99.90
35559;DHT22;21661;50.794;-1.066;2023-02-28T05:43:37;4.00;99.90
35559;DHT22;21661;50.794;-1.066;2023-02-28T05:46:07;4.00;99.90
35559;DHT22;21661;50.794;-1.066;2023-02-28T05:48:34;4.10;99.90
35559;DHT22;21661;50.794;-1.066;2023-02-28T05:51:00;4.10;99.90
35559;DHT22;21661;50.794;-1.066;2023-02-28T05:53:27;4.10;99.90
35559;DHT22;21661;50.794;-1.066;2023-02-28T05:55:53;4.10;99.90
35559;DHT22;21661;50.794;-1.066;2023-02-28T05:58:19;4.10;99.90
35559;DHT22;21661;50.794;-1.066;2023-02-28T06:00:45;4.10;99.90
35559;DHT22;21661;50.794;-1.066;2023-02-28T06:03:11;4.10;99.90
35559;DHT22;21661;50.794;-1.066;2023-02-28T06:05:36;4.00;99.90
35559;DHT22;21661;50.794;-1.066;2023-02-28T06:08:03;4.00;99.90
35559;DHT22;21661;50.794;-1.066;2023-02-28T06:10:31;4.00;99.90
35559;DHT22;21661;50.794;-1.066;2023-02-28T06:13:03;4.00;99.90
35559;DHT22;21661;50.794;-1.066;2023-02-28T06:15:29;3.90;99.90
35559;DHT22;21661;50.794;-1.066;2023-02-28T06:17:55;4.00;99.90
35559;DHT22;21661;50.794;-1.066;2023-02-28T06:20:22;4.00;99.90
35559;DHT22;21661;50.794;-1.066;2023-02-28T06:22:48;4.00;99.90
35559;DHT22;21661;50.794;-1.066;2023-02-28T06:25:16;4.00;99.90
35559;DHT22;21661;50.794;-1.066;2023-02-28T06:27:42;4.00;99.90
35559;DHT22;21661;50.794;-1.066;2023-02-28T06:30:09;4.00;99.90
35559;DHT22;21661;50.794;-1.066;2023-02-28T06:32:35;3.90;99.90
35559;DHT22;21661;50.794;-1.066;2023-02-28T06:35:01;3.90;99.90
35559;DHT22;21661;50.794;-1.066;2023-02-28T06:37:27;4.00;99.90
35559;DHT22;21661;50.794;-1.066;2023-02-28T06:39:54;4.00;99.90
35559;DHT22;21661;50.794;-1.066;2023-02-28T06:42:22;4.00;99.90
35559;DHT22;21661;50.794;-1.066;2023-02-28T06:44:50;4.00;99.90
35559;DHT22;21661;50.794;-1.066;2023-02-28T06:47:16;4.00;99.90
35559;DHT22;21661;50.794;-1.066;2023-02-28T06:49:41;4.00;99.90
35559;DHT22;21661;50.794;-1.066;2023-02-28T06:52:07;4.10;99.90
35559;DHT22;21661;50.794;-1.066;2023-02-28T06:54:34;4.10;99.90
35559;DHT22;21661;50.794;-1.066;2023-02-28T06:56:59;4.10;99.90
35559;DHT22;21661;50.794;-1.066;2023-02-28T06:59:25;4.10;99.90
35559;DHT22;21661;50.794;-1.066;2023-02-28T07:01:50;4.20;99.90
35559;DHT22;21661;50.794;-1.066;2023-02-28T07:04:16;4.20;99.90
35559;DHT22;21661;50.794;-1.066;2023-02-28T07:06:41;4.20;99.90
35559;DHT22;21661;50.794;-1.066;2023-02-28T07:09:07;4.20;99.90
35559;DHT22;21661;50.794;-1.066;2023-02-28T07:11:33;4.20;99.90
35559;DHT22;21661;50.794;-1.066;2023-02-28T07:13:59;4.20;99.90
35559;DHT22;21661;50.794;-1.066;2023-02-28T07:16:25;4.20;99.90
35559;DHT22;21661;50.794;-1.066;2023-02-28T07:18:54;4.20;99.90
35559;DHT22;21661;50.794;-1.066;2023-02-28T07:21:20;4.20;99.90
35559;DHT22;21661;50.794;-1.066;2023-02-28T07:23:45;4.20;99.90
35559;DHT22;21661;50.794;-1.066;2023-02-28T07:26:14;4.20;99.90
35559;DHT22;21661;50.794;-1.066;2023-02-28T07:28:44;4.20;99.90
35559;DHT22;21661;50.794;-1.066;2023-02-28T07:31:11;4.20;99.90
35559;DHT22;21661;50.794;-1.066;2023-02-28T07:33:37;4.30;99.90
35559;DHT22;21661;50.794;-1.066;2023-02-28T07:36:08;4.30;99.90
35559;DHT22;21661;50.794;-1.066;2023-02-28T07:38:36;4.30;99.90
35559;DHT22;21661;50.794;-1.066;2023-02-28T07:41:03;4.30;99.90
35559;DHT22;21661;50.794;-1.066;2023-02-28T07:43:32;4.30;99.90
35559;DHT22;21661;50.794;-1.066;2023-02-28T07:46:04;4.30;99.90
35559;DHT22;21661;50.794;-1.066;2023-02-28T07:48:31;4.40;99.90
35559;DHT22;21661;50.794;-1.066;2023-02-28T07:50:57;4.50;99.90
35559;DHT22;21661;50.794;-1.066;2023-02-28T07:53:23;4.50;99.90
35559;DHT22;21661;50.794;-1.066;2023-02-28T07:55:49;4.50;99.90
35559;DHT22;21661;50.794;-1.066;2023-02-28T07:58:14;4.60;99.90
35559;DHT22;21661;50.794;-1.066;2023-02-28T08:00:40;4.60;99.90
35559;DHT22;21661;50.794;-1.066;2023-02-28T08:03:05;4.60;99.90
35559;DHT22;21661;50.794;-1.066;2023-02-28T08:05:31;4.70;99.90
35559;DHT22;21661;50.794;-1.066;2023-02-28T08:07:57;4.80;99.90
35559;DHT22;21661;50.794;-1.066;2023-02-28T08:10:23;4.80;99.90
35559;DHT22;21661;50.794;-1.066;2023-02-28T08:12:49;4.90;99.90
35559;DHT22;21661;50.794;-1.066;2023-02-28T08:15:15;4.90;99.90
35559;DHT22;21661;50.794;-1.066;2023-02-28T08:17:40;5.00;99.90
35559;DHT22;21661;50.794;-1.066;2023-02-28T08:20:07;5.10;99.90
35559;DHT22;21661;50.794;-1.066;2023-02-28T08:22:33;5.10;99.90
35559;DHT22;21661;50.794;-1.066;2023-02-28T08:24:58;5.00;99.90
35559;DHT22;21661;50.794;-1.066;2023-02-28T08:27:24;5.10;99.90
35559;DHT22;21661;50.794;-1.066;2023-02-28T08:29:49;5.10;99.90
35559;DHT22;21661;50.794;-1.066;2023-02-28T08:32:15;5.10;99.90
35559;DHT22;21661;50.794;-1.066;2023-02-28T08:34:40;5.10;99.90
35559;DHT22;21661;50.794;-1.066;2023-02-28T08:37:06;5.10;99.90
35559;DHT22;21661;50.794;-1.066;2023-02-28T08:39:34;5.20;99.90
35559;DHT22;21661;50.794;-1.066;2023-02-28T08:42:01;5.10;99.90
35559;DHT22;21661;50.794;-1.066;2023-02-28T08:44:27;5.10;99.90
35559;DHT22;21661;50.794;-1.066;2023-02-28T08:46:53;5.00;99.90
35559;DHT22;21661;50.794;-1.066;2023-02-28T08:49:18;5.10;99.90
35559;DHT22;21661;50.794;-1.066;2023-02-28T08:51:44;5.10;99.90
35559;DHT22;21661;50.794;-1.066;2023-02-28T08:54:10;5.10;99.90
35559;DHT22;21661;50.794;-1.066;2023-02-28T08:56:38;5.00;99.90
35559;DHT22;21661;50.794;-1.066;2023-02-28T08:59:03;4.90;99.90
35559;DHT22;21661;50.794;-1.066;2023-02-28T09:01:29;5.10;99.90
35559;DHT22;21661;50.794;-1.066;2023-02-28T09:03:57;5.20;99.90
35559;DHT22;21661;50.794;-1.066;2023-02-28T09:06:24;5.20;99.90
35559;DHT22;21661;50.794;-1.066;2023-02-28T09:08:51;5.30;99.90
35559;DHT22;21661;50.794;-1.066;2023-02-28T09:11:17;5.20;99.90
35559;DHT22;21661;50.794;-1.066;2023-02-28T09:13:45;5.30;99.90
35559;DHT22;21661;50.794;-1.066;2023-02-28T09:16:13;5.30;99.90
35559;DHT22;21661;50.794;-1.066;2023-02-28T09:18:39;5.30;99.90
35559;DHT22;21661;50.794;-1.066;2023-02-28T09:21:08;5.40;99.90
35559;DHT22;21661;50.794;-1.066;2023-02-28T09:23:34;5.50;99.90
35559;DHT22;21661;50.794;-1.066;2023-02-28T09:26:00;5.50;99.90
35559;DHT22;21661;50.794;-1.066;2023-02-28T09:28:26;5.60;99.90
35559;DHT22;21661;50.794;-1.066;2023-02-28T09:30:54;5.70;99.90
35559;DHT22;21661;50.794;-1.066;2023-02-28T09:33:20;5.80;99.90
35559;DHT22;21661;50.794;-1.066;2023-02-28T09:35:47;5.80;99.90
35559;DHT22;21661;50.794;-1.066;2023-02-28T09:38:13;5.90;99.90
35559;DHT22;21661;50.794;-1.066;2023-02-28T09:43:15;6.00;99.90
35559;DHT22;21661;50.794;-1.066;2023-02-28T09:48:29;5.90;99.90
35559;DHT22;21661;50.794;-1.066;2023-02-28T09:51:03;5.90;99.90
35559;DHT22;21661;50.794;-1.066;2023-02-28T09:53:32;6.00;99.90
35559;DHT22;21661;50.794;-1.066;2023-02-28T09:56:09;6.00;99.90
35559;DHT22;21661;50.794;-1.066;2023-02-28T09:58:46;6.10;99.90
35559;DHT22;21661;50.794;-1.066;2023-02-28T10:02:03;6.20;99.90
35559;DHT22;21661;50.794;-1.066;2023-02-28T10:06:46;6.20;99.90
35559;DHT22;21661;50.794;-1.066;2023-02-28T10:09:32;6.30;99.90
35559;DHT22;21661;50.794;-1.066;2023-02-28T10:12:03;6.40;99.90
35559;DHT22;21661;50.794;-1.066;2023-02-28T10:14:32;6.40;99.90
35559;DHT22;21661;50.794;-1.066;2023-02-28T10:17:14;6.40;99.90
35559;DHT22;21661;50.794;-1.066;2023-02-28T10:19:51;6.50;99.90
35559;DHT22;21661;50.794;-1.066;2023-02-28T10:22:34;6.50;99.90
35559;DHT22;21661;50.794;-1.066;2023-02-28T10:25:16;6.50;99.90
35559;DHT22;21661;50.794;-1.066;2023-02-28T10:27:42;6.60;99.90
35559;DHT22;21661;50.794;-1.066;2023-02-28T10:30:11;6.60;99.90
35559;DHT22;21661;50.794;-1.066;2023-02-28T10:32:39;6.70;99.90
35559;DHT22;21661;50.794;-1.066;2023-02-28T10:35:16;6.70;99.90
35559;DHT22;21661;50.794;-1.066;2023-02-28T10:37:45;6.70;99.90
35559;DHT22;21661;50.794;-1.066;2023-02-28T10:40:30;6.80;99.90
35559;DHT22;21661;50.794;-1.066;2023-02-28T10:43:05;6.90;99.90
35559;DHT22;21661;50.794;-1.066;2023-02-28T10:45:34;6.90;99.90
35559;DHT22;21661;50.794;-1.066;2023-02-28T10:58:45;6.70;99.90
35559;DHT22;21661;50.794;-1.066;2023-02-28T11:03:41;6.70;99.90
35559;DHT22;21661;50.794;-1.066;2023-02-28T11:06:42;6.80;99.90
35559;DHT22;21661;50.794;-1.066;2023-02-28T11:09:02;6.80;99.90
35559;DHT22;21661;50.794;-1.066;2023-02-28T11:11:30;6.80;99.90
35559;DHT22;21661;50.794;-1.066;2023-02-28T11:14:17;6.70;99.90
35559;DHT22;21661;50.794;-1.066;2023-02-28T11:16:44;6.80;99.90
35559;DHT22;21661;50.794;-1.066;2023-02-28T11:19:19;6.80;99.90
35559;DHT22;21661;50.794;-1.066;2023-02-28T11:21:55;6.90;99.90
35559;DHT22;21661;50.794;-1.066;2023-02-28T11:26:52;7.00;99.90
35559;DHT22;21661;50.794;-1.066;2023-02-28T11:29:20;7.00;99.90
35559;DHT22;21661;50.794;-1.066;2023-02-28T11:34:40;7.20;99.90
35559;DHT22;21661;50.794;-1.066;2023-02-28T11:37:15;7.30;99.90
35559;DHT22;21661;50.794;-1.066;2023-02-28T11:39:41;7.50;99.90
35559;DHT22;21661;50.794;-1.066;2023-02-28T11:53:10;7.70;99.90
35559;DHT22;21661;50.794;-1.066;2023-02-28T11:55:43;7.70;99.90
35559;DHT22;21661;50.794;-1.066;2023-02-28T11:58:43;7.60;99.90
35559;DHT22;21661;50.794;-1.066;2023-02-28T12:06:50;7.70;99.90
35559;DHT22;21661;50.794;-1.066;2023-02-28T12:09:30;7.80;99.90
35559;DHT22;21661;50.794;-1.066;2023-02-28T12:15:05;7.90;99.90
35559;DHT22;21661;50.794;-1.066;2023-02-28T12:20:38;8.20;99.90
35559;DHT22;21661;50.794;-1.066;2023-02-28T12:23:17;8.30;99.90
35559;DHT22;21661;50.794;-1.066;2023-02-28T12:28:41;8.40;99.90
35559;DHT22;21661;50.794;-1.066;2023-02-28T12:33:48;8.30;99.90
35559;DHT22;21661;50.794;-1.066;2023-02-28T12:36:18;8.40;99.90
35559;DHT22;21661;50.794;-1.066;2023-02-28T12:39:04;8.50;99.90
35559;DHT22;21661;50.794;-1.066;2023-02-28T12:44:24;8.60;99.90
35559;DHT22;21661;50.794;-1.066;2023-02-28T12:46:55;8.60;99.90
35559;DHT22;21661;50.794;-1.066;2023-02-28T12:49:30;8.60;99.90
35559;DHT22;21661;50.794;-1.066;2023-02-28T12:51:59;8.60;99.90
35559;DHT22;21661;50.794;-1.066;2023-02-28T12:54:40;8.60;99.90
35559;DHT22;21661;50.794;-1.066;2023-02-28T12:57:15;8.50;99.90
35559;DHT22;21661;50.794;-1.066;2023-02-28T12:59:56;8.50;99.90
35559;DHT22;21661;50.794;-1.066;2023-02-28T13:10:40;8.50;99.90
35559;DHT22;21661;50.794;-1.066;2023-02-28T13:13:14;8.60;99.90
35559;DHT22;21661;50.794;-1.066;2023-02-28T13:15:41;8.70;99.90
35559;DHT22;21661;50.794;-1.066;2023-02-28T13:18:42;8.70;99.90
35559;DHT22;21661;50.794;-1.066;2023-02-28T13:21:23;8.80;99.90
35559;DHT22;21661;50.794;-1.066;2023-02-28T13:27:10;8.80;99.90
35559;DHT22;21661;50.794;-1.066;2023-02-28T13:34:31;9.00;99.90
35559;DHT22;21661;50.794;-1.066;2023-02-28T13:39:57;8.90;99.90
35559;DHT22;21661;50.794;-1.066;2023-02-28T13:42:36;8.90;99.90
35559;DHT22;21661;50.794;-1.066;2023-02-28T13:50:39;8.70;99.90
35559;DHT22;21661;50.794;-1.066;2023-02-28T13:56:01;8.70;99.90
35559;DHT22;21661;50.794;-1.066;2023-02-28T14:01:57;8.70;99.90
35559;DHT22;21661;50.794;-1.066;2023-02-28T14:04:50;8.70;99.90
35559;DHT22;21661;50.794;-1.066;2023-02-28T14:07:21;8.60;99.90
35559;DHT22;21661;50.794;-1.066;2023-02-28T14:10:18;8.60;99.90
35559;DHT22;21661;50.794;-1.066;2023-02-28T14:15:48;8.40;99.90
35559;DHT22;21661;50.794;-1.066;2023-02-28T14:18:21;8.40;99.90
35559;DHT22;21661;50.794;-1.066;2023-02-28T14:20:49;8.40;99.90
35559;DHT22;21661;50.794;-1.066;2023-02-28T14:29:25;8.40;99.90
35559;DHT22;21661;50.794;-1.066;2023-02-28T14:37:34;8.30;99.90
35559;DHT22;21661;50.794;-1.066;2023-02-28T14:40:04;8.40;99.90
35559;DHT22;21661;50.794;-1.066;2023-02-28T14:42:36;8.40;99.90
35559;DHT22;21661;50.794;-1.066;2023-02-28T14:45:20;8.40;99.90
35559;DHT22;21661;50.794;-1.066;2023-02-28T14:47:46;8.40;99.90
35559;DHT22;21661;50.794;-1.066;2023-02-28T14:50:23;8.40;99.90
35559;DHT22;21661;50.794;-1.066;2023-02-28T14:52:53;8.40;99.90
35559;DHT22;21661;50.794;-1.066;2023-02-28T14:55:24;8.40;99.90
35559;DHT22;21661;50.794;-1.066;2023-02-28T14:57:56;8.50;99.90
35559;DHT22;21661;50.794;-1.066;2023-02-28T15:00:30;8.50;99.90
35559;DHT22;21661;50.794;-1.066;2023-02-28T15:02:58;8.50;99.90
35559;DHT22;21661;50.794;-1.066;2023-02-28T15:08:05;8.50;99.90
35559;DHT22;21661;50.794;-1.066;2023-02-28T15:10:31;8.60;99.90
35559;DHT22;21661;50.794;-1.066;2023-02-28T15:18:44;8.50;99.90
35559;DHT22;21661;50.794;-1.066;2023-02-28T15:21:17;8.60;99.90
35559;DHT22;21661;50.794;-1.066;2023-02-28T15:23:45;8.60;99.90
35559;DHT22;21661;50.794;-1.066;2023-02-28T15:26:21;8.60;99.90
35559;DHT22;21661;50.794;-1.066;2023-02-28T15:28:52;8.60;99.90
35559;DHT22;21661;50.794;-1.066;2023-02-28T15:31:28;8.50;99.90
35559;DHT22;21661;50.794;-1.066;2023-02-28T15:33:56;8.50;99.90
35559;DHT22;21661;50.794;-1.066;2023-02-28T15:36:26;8.50;99.90
35559;DHT22;21661;50.794;-1.066;2023-02-28T15:38:53;8.50;99.90
35559;DHT22;21661;50.794;-1.066;2023-02-28T15:41:26;8.50;99.90
35559;DHT22;21661;50.794;-1.066;2023-02-28T15:46:44;8.50;99.90
35559;DHT22;21661;50.794;-1.066;2023-02-28T15:49:19;8.50;99.90
35559;DHT22;21661;50.794;-1.066;2023-02-28T15:51:46;8.50;99.90
35559;DHT22;21661;50.794;-1.066;2023-02-28T15:54:20;8.60;99.90
35559;DHT22;21661;50.794;-1.066;2023-02-28T15:56:50;8.50;99.90
35559;DHT22;21661;50.794;-1.066;2023-02-28T15:59:19;8.50;99.90
35559;DHT22;21661;50.794;-1.066;2023-02-28T16:01:46;8.50;99.90
35559;DHT22;21661;50.794;-1.066;2023-02-28T16:04:19;8.50;99.90
35559;DHT22;21661;50.794;-1.066;2023-02-28T16:06:46;8.50;99.90
35559;DHT22;21661;50.794;-1.066;2023-02-28T16:09:15;8.50;99.90
35559;DHT22;21661;50.794;-1.066;2023-02-28T16:11:45;8.50;99.90
35559;DHT22;21661;50.794;-1.066;2023-02-28T16:14:20;8.50;99.90
35559;DHT22;21661;50.794;-1.066;2023-02-28T16:16:49;8.40;99.90
35559;DHT22;21661;50.794;-1.066;2023-02-28T16:19:17;8.40;99.90
35559;DHT22;21661;50.794;-1.066;2023-02-28T16:21:43;8.40;99.90
35559;DHT22;21661;50.794;-1.066;2023-02-28T16:24:08;8.40;99.90
35559;DHT22;21661;50.794;-1.066;2023-02-28T16:26:34;8.40;99.90
35559;DHT22;21661;50.794;-1.066;2023-02-28T16:29:03;8.40;99.90
35559;DHT22;21661;50.794;-1.066;2023-02-28T16:31:29;8.50;99.90
35559;DHT22;21661;50.794;-1.066;2023-02-28T16:33:55;8.40;99.90
35559;DHT22;21661;50.794;-1.066;2023-02-28T16:36:23;8.50;99.90
35559;DHT22;21661;50.794;-1.066;2023-02-28T16:38:50;8.40;99.90
35559;DHT22;21661;50.794;-1.066;2023-02-28T16:41:21;8.40;99.90
35559;DHT22;21661;50.794;-1.066;2023-02-28T16:43:49;8.40;99.90
35559;DHT22;21661;50.794;-1.066;2023-02-28T16:46:17;8.50;99.90
35559;DHT22;21661;50.794;-1.066;2023-02-28T16:48:44;8.40;99.90
35559;DHT22;21661;50.794;-1.066;2023-02-28T16:51:16;8.40;99.90
35559;DHT22;21661;50.794;-1.066;2023-02-28T16:53:42;8.40;99.90
35559;DHT22;21661;50.794;-1.066;2023-02-28T16:56:16;8.30;99.90
35559;DHT22;21661;50.794;-1.066;2023-02-28T16:58:43;8.40;99.90
35559;DHT22;21661;50.794;-1.066;2023-02-28T17:01:08;8.30;99.90
35559;DHT22;21661;50.794;-1.066;2023-02-28T17:03:34;8.30;99.90
35559;DHT22;21661;50.794;-1.066;2023-02-28T17:06:02;8.30;99.90
35559;DHT22;21661;50.794;-1.066;2023-02-28T17:08:28;8.30;99.90
35559;DHT22;21661;50.794;-1.066;2023-02-28T17:10:55;8.30;99.90
35559;DHT22;21661;50.794;-1.066;2023-02-28T17:13:20;8.30;99.90
35559;DHT22;21661;50.794;-1.066;2023-02-28T17:15:46;8.30;99.90
35559;DHT22;21661;50.794;-1.066;2023-02-28T17:18:15;8.30;99.90
35559;DHT22;21661;50.794;-1.066;2023-02-28T17:20:44;8.30;99.90
35559;DHT22;21661;50.794;-1.066;2023-02-28T17:23:10;8.40;99.90
35559;DHT22;21661;50.794;-1.066;2023-02-28T17:25:35;8.30;99.90
35559;DHT22;21661;50.794;-1.066;2023-02-28T17:28:01;8.30;99.90
35559;DHT22;21661;50.794;-1.066;2023-02-28T17:30:27;8.30;99.90
35559;DHT22;21661;50.794;-1.066;2023-02-28T17:32:54;8.30;99.90
35559;DHT22;21661;50.794;-1.066;2023-02-28T17:35:20;8.30;99.90
35559;DHT22;21661;50.794;-1.066;2023-02-28T17:37:45;8.20;99.90
35559;DHT22;21661;50.794;-1.066;2023-02-28T17:40:15;8.20;99.90
35559;DHT22;21661;50.794;-1.066;2023-02-28T17:42:41;8.20;99.90
35559;DHT22;21661;50.794;-1.066;2023-02-28T17:45:07;8.30;99.90
35559;DHT22;21661;50.794;-1.066;2023-02-28T17:47:33;8.20;99.90
35559;DHT22;21661;50.794;-1.066;2023-02-28T17:49:58;8.30;99.90
35559;DHT22;21661;50.794;-1.066;2023-02-28T17:52:24;8.30;99.90
35559;DHT22;21661;50.794;-1.066;2023-02-28T17:54:50;8.20;99.90
35559;DHT22;21661;50.794;-1.066;2023-02-28T17:57:15;8.20;99.90
35559;DHT22;21661;50.794;-1.066;2023-02-28T17:59:42;8.20;99.90
35559;DHT22;21661;50.794;-1.066;2023-02-28T18:02:14;8.20;99.90